Terminal Aerodrome Forecast
Issued by NWS

Home | Current Version | Previous Version | Text Only | Print | Product List | Glossary On
Versions: 1 2 3 4 5 6 7 8 9 10 11 12 13 14 15
000
FTAK31 PANC 302345
TAFAIL
TAF
PAIL 302345Z 0100/0124 09020G28KT P6SM VCSH SCT025 BKN050
      TEMPO 0102/0106 09020G35KT
     FM010900 08012G18KT P6SM BKN050
     FM011500 07008KT P6SM -SHRA BKN040 OVC060
     FM011900 10010G15KT P6SM BKN050=

USA.gov is the U.S. government's official web portal to all federal, state and local government web resources and services.